createdAt,value
2018-04-07T00:01:03.598Z,30.19
2018-04-07T00:02:12.754Z,30.19
2018-04-07T00:03:21.393Z,30.19
2018-04-07T00:04:30.326Z,29.71
2018-04-07T00:05:39.231Z,30.19
2018-04-07T00:06:48.656Z,29.71
2018-04-07T00:07:58.304Z,29.9
2018-04-07T00:09:06.949Z,29.9
2018-04-07T00:10:16.361Z,29.9
2018-04-07T00:11:25.007Z,30
2018-04-07T00:12:33.653Z,30.11
2018-04-07T00:13:42.793Z,29.71
2018-04-07T00:14:51.705Z,29.71
2018-04-07T00:16:00.586Z,29.8
2018-04-07T00:17:09.742Z,29.8
2018-04-07T00:18:18.889Z,29.9
2018-04-07T00:19:28.034Z,29.91
2018-04-07T00:20:36.681Z,29.8
2018-04-07T00:21:45.576Z,29.8
2018-04-07T00:22:54.998Z,29.9
2018-04-07T00:24:03.888Z,30
2018-04-07T00:25:12.531Z,29.71
2018-04-07T00:26:21.160Z,29.9
2018-04-07T00:27:30.568Z,29.9
2018-04-07T00:28:39.737Z,29.71
2018-04-07T00:29:49.415Z,29.9
2018-04-07T00:30:58.574Z,29.9
2018-04-07T00:32:07.775Z,29.8
2018-04-07T00:33:16.661Z,29.8
2018-04-07T00:34:25.307Z,29.8
2018-04-07T00:35:34.206Z,30
2018-04-07T00:36:43.639Z,29.71
2018-04-07T00:37:52.785Z,29.8
2018-04-07T00:39:01.977Z,29.9
2018-04-07T00:40:11.121Z,30
2018-04-07T00:41:20.536Z,30
2018-04-07T00:42:29.437Z,29.9
2018-04-07T00:43:38.577Z,30
2018-04-07T00:44:47.476Z,30
2018-04-07T00:45:56.369Z,30
2018-04-07T00:47:05.280Z,29.52
2018-04-07T00:48:14.180Z,30.19
2018-04-07T00:49:23.344Z,29.52
2018-04-07T00:50:32.246Z,30.19
2018-04-07T00:51:40.886Z,30.19
2018-04-07T00:52:49.773Z,29.42
2018-04-07T00:53:59.484Z,29.42
2018-04-07T00:55:08.640Z,29.42
2018-04-07T00:56:17.796Z,29.52
2018-04-07T00:57:26.724Z,29.71
2018-04-07T00:58:35.872Z,29.61
2018-04-07T00:59:45.028Z,29.61
2018-04-07T01:00:54.435Z,29.9
2018-04-07T01:02:03.852Z,29.71
2018-04-07T01:03:13.044Z,29.71
2018-04-07T01:04:21.931Z,29.71
2018-04-07T01:05:30.830Z,29.71
2018-04-07T01:06:39.968Z,29.61
2018-04-07T01:07:48.881Z,29.71
2018-04-07T01:08:58.026Z,29.71
2018-04-07T01:10:07.196Z,29.61
2018-04-07T01:11:16.891Z,29.61
2018-04-07T01:12:26.322Z,29.71
2018-04-07T01:13:35.487Z,29.61
2018-04-07T01:14:44.654Z,29.61
2018-04-07T01:15:54.062Z,29.71
2018-04-07T01:17:03.209Z,29.61
2018-04-07T01:18:12.091Z,29.61
2018-04-07T01:19:20.741Z,29.71
2018-04-07T01:20:29.897Z,29.8
2018-04-07T01:21:39.044Z,29.9
2018-04-07T01:22:48.440Z,29.8
2018-04-07T01:23:57.594Z,29.32
2018-04-07T01:25:06.486Z,29.9
2018-04-07T01:26:15.401Z,29.8
2018-04-07T01:27:24.819Z,29.8
2018-04-07T01:28:33.442Z,29.8
2018-04-07T01:29:42.590Z,29.8
2018-04-07T01:30:52.012Z,29.32
2018-04-07T01:32:01.449Z,29.42
2018-04-07T01:33:10.590Z,29.32
2018-04-07T01:34:19.477Z,29.42
2018-04-07T01:35:28.376Z,29.52
2018-04-07T01:36:37.291Z,29.52
2018-04-07T01:37:46.448Z,29.52
2018-04-07T01:38:55.346Z,29.61
2018-04-07T01:40:04.772Z,29.61
2018-04-07T01:41:13.942Z,29.52
2018-04-07T01:42:22.829Z,29.52
2018-04-07T01:43:31.979Z,29.52
2018-04-07T01:44:41.134Z,29.52
2018-04-07T01:45:50.539Z,29.71
2018-04-07T01:46:59.782Z,29.8
2018-04-07T01:48:08.686Z,29.71
2018-04-07T01:49:17.839Z,29.61
2018-04-07T01:50:26.982Z,29.42
2018-04-07T01:51:35.621Z,29.61
2018-04-07T01:52:44.781Z,29.71
2018-04-07T01:53:53.930Z,29.8
2018-04-07T01:55:02.613Z,29.8
2018-04-07T01:56:11.500Z,29.52
2018-04-07T01:57:20.648Z,29.9
2018-04-07T01:58:29.545Z,29.71
2018-04-07T01:59:38.433Z,29.32
2018-04-07T02:00:47.324Z,29.61
2018-04-07T02:01:56.731Z,29.22
2018-04-07T02:03:05.896Z,29.32
2018-04-07T02:04:14.532Z,29.32
2018-04-07T02:05:23.684Z,29.32
2018-04-07T02:06:32.575Z,29.32
2018-04-07T02:07:41.729Z,29.32
2018-04-07T02:08:50.894Z,29.41
2018-04-07T02:09:59.536Z,29.32
2018-04-07T02:11:08.417Z,29.42
2018-04-07T02:12:17.306Z,29.61
2018-04-07T02:13:26.221Z,29.42
2018-04-07T02:14:34.861Z,29.52
2018-04-07T02:15:43.779Z,29.41
2018-04-07T02:16:52.663Z,29.42
2018-04-07T02:18:01.557Z,29.22
2018-04-07T02:19:10.443Z,29.32
2018-04-07T02:20:19.340Z,29.52
2018-04-07T02:21:28.507Z,29.52
2018-04-07T02:22:37.138Z,29.32
2018-04-07T02:23:46.835Z,29.13
2018-04-07T02:24:55.718Z,29.42
2018-04-07T02:26:04.856Z,29.32
2018-04-07T02:27:14.296Z,29.22
2018-04-07T02:28:23.446Z,29.22
2018-04-07T02:29:32.334Z,29.32
2018-04-07T02:30:41.473Z,29.22
2018-04-07T02:31:50.365Z,29.21
2018-04-07T02:32:59.875Z,29.22
2018-04-07T02:34:08.739Z,29.21
2018-04-07T02:35:17.643Z,29.11
2018-04-07T02:36:26.540Z,29.22
2018-04-07T02:37:35.715Z,29.13
2018-04-07T02:38:44.628Z,29.22
2018-04-07T02:39:53.781Z,29.11
2018-04-07T02:41:02.924Z,29.21
2018-04-07T02:42:11.560Z,29.11
2018-04-07T02:43:20.736Z,29.02
2018-04-07T02:44:30.169Z,29.11
2018-04-07T02:45:39.331Z,29.21
2018-04-07T02:46:47.965Z,29.31
2018-04-07T02:47:57.370Z,29.31
2018-04-07T02:49:06.517Z,29.21
2018-04-07T02:50:15.464Z,29.22
2018-04-07T02:51:25.032Z,29.21
2018-04-07T02:52:33.943Z,29.11
2018-04-07T02:53:43.402Z,29.21
2018-04-07T02:54:52.829Z,29.21
2018-04-07T02:56:02.047Z,29.11
2018-04-07T02:57:11.525Z,29.21
2018-04-07T02:58:20.936Z,29.22
2018-04-07T02:59:29.849Z,29.32
2018-04-07T03:00:39.551Z,29.21
2018-04-07T03:01:48.980Z,29.21
2018-04-07T03:02:57.877Z,29.21
2018-04-07T03:04:07.297Z,29.21
2018-04-07T03:05:16.969Z,29.21
2018-04-07T03:06:26.114Z,29.21
2018-04-07T03:07:34.770Z,28.92
2018-04-07T03:08:43.928Z,29.21
2018-04-07T03:09:52.838Z,29.21
2018-04-07T03:11:01.724Z,29.21
2018-04-07T03:12:10.356Z,29.21
2018-04-07T03:13:19.520Z,29.21
2018-04-07T03:14:28.674Z,29.21
2018-04-07T03:15:37.570Z,29.21
2018-04-07T03:16:46.985Z,29.21
2018-04-07T03:17:55.606Z,29.21
2018-04-07T03:19:04.518Z,29.21
2018-04-07T03:20:13.682Z,29.31
2018-04-07T03:21:22.633Z,29.21
2018-04-07T03:22:31.546Z,29.31
2018-04-07T03:23:40.961Z,29.31
2018-04-07T03:24:50.152Z,29.31
2018-04-07T03:25:59.037Z,29.21
2018-04-07T03:27:07.948Z,28.83
2018-04-07T03:28:17.109Z,29.41
2018-04-07T03:29:26.016Z,29.41
2018-04-07T03:30:34.911Z,29.31
2018-04-07T03:31:44.056Z,29.21
2018-04-07T03:32:53.913Z,28.83
2018-04-07T03:34:02.548Z,29.31
2018-04-07T03:35:11.434Z,29.21
2018-04-07T03:36:20.582Z,29.21
2018-04-07T03:37:29.480Z,29.21
2018-04-07T03:38:38.631Z,29.21
2018-04-07T03:39:47.770Z,29.31
2018-04-07T03:40:56.655Z,29.41
2018-04-07T03:42:05.803Z,29.31
2018-04-07T03:43:14.769Z,29.31
2018-04-07T03:44:23.402Z,29.31
2018-04-07T03:45:32.291Z,29.41
2018-04-07T03:46:41.182Z,28.83
2018-04-07T03:47:50.838Z,29.31
2018-04-07T03:48:59.469Z,29.31
2018-04-07T03:50:08.878Z,28.83
2018-04-07T03:51:18.026Z,29.5
2018-04-07T03:52:27.171Z,29.31
2018-04-07T03:53:36.323Z,29.5
2018-04-07T03:54:45.284Z,29.41
2018-04-07T03:55:54.440Z,29.41
2018-04-07T03:57:03.320Z,28.92
2018-04-07T03:58:12.216Z,28.92
2018-04-07T03:59:21.102Z,29.69
2018-04-07T04:00:29.997Z,29.41
2018-04-07T04:01:39.157Z,28.83
2018-04-07T04:02:48.612Z,28.92
2018-04-07T04:03:58.018Z,28.92
2018-04-07T04:05:07.174Z,29.6
2018-04-07T04:06:16.845Z,28.92
2018-04-07T04:07:25.985Z,29.6
2018-04-07T04:08:34.878Z,29.02
2018-04-07T04:09:43.768Z,28.83
2018-04-07T04:10:52.680Z,28.92
2018-04-07T04:12:02.062Z,28.92
2018-04-07T04:13:10.696Z,28.92
2018-04-07T04:14:19.647Z,28.83
2018-04-07T04:15:28.526Z,29.02
2018-04-07T04:16:37.440Z,28.92
2018-04-07T04:17:46.688Z,29.02
2018-04-07T04:18:55.588Z,28.92
2018-04-07T04:20:04.723Z,28.92
2018-04-07T04:21:13.944Z,28.92
2018-04-07T04:22:23.102Z,28.92
2018-04-07T04:23:32.541Z,29.02
2018-04-07T04:24:41.441Z,28.92
2018-04-07T04:25:51.107Z,28.92
2018-04-07T04:27:00.053Z,29.02
2018-04-07T04:28:09.212Z,29.11
2018-04-07T04:29:18.138Z,29.02
2018-04-07T04:30:28.057Z,29.02
2018-04-07T04:31:37.485Z,29.02
2018-04-07T04:32:46.898Z,29.11
2018-04-07T04:33:56.057Z,28.92
2018-04-07T04:35:05.732Z,29.02
2018-04-07T04:36:14.655Z,29.02
2018-04-07T04:37:23.803Z,29.02
2018-04-07T04:38:32.956Z,28.92
2018-04-07T04:39:41.650Z,29.11
2018-04-07T04:40:50.535Z,29.11
2018-04-07T04:41:59.457Z,29.02
2018-04-07T04:43:08.381Z,29.11
2018-04-07T04:44:17.792Z,29.11
2018-04-07T04:45:26.989Z,29.02
2018-04-07T04:46:35.893Z,29.02
2018-04-07T04:47:44.786Z,29.11
2018-04-07T04:48:53.425Z,29.02
2018-04-07T04:50:02.115Z,29.11
2018-04-07T04:51:11.282Z,29.11
2018-04-07T04:52:20.444Z,29.02
2018-04-07T04:53:29.705Z,29.11
2018-04-07T04:54:38.647Z,29.02
2018-04-07T04:55:47.317Z,29.02
2018-04-07T04:56:56.013Z,29.11
2018-04-07T04:58:05.164Z,29.11
2018-04-07T04:59:14.053Z,29.02
2018-04-07T05:00:23.196Z,29.02
2018-04-07T05:01:32.366Z,29.11
2018-04-07T05:02:41.518Z,29.02
2018-04-07T05:03:50.465Z,29.02
2018-04-07T05:05:00.093Z,29.02
2018-04-07T05:06:08.996Z,29.11
2018-04-07T05:07:17.698Z,29.02
2018-04-07T05:08:26.937Z,29.02
2018-04-07T05:09:36.371Z,29.11
2018-04-07T05:10:45.563Z,29.02
2018-04-07T05:11:54.449Z,28.92
2018-04-07T05:13:03.435Z,29.11
2018-04-07T05:14:12.079Z,28.92
2018-04-07T05:15:20.717Z,29.02
2018-04-07T05:16:29.627Z,29.02
2018-04-07T05:17:38.775Z,29.02
2018-04-07T05:18:47.421Z,29.02
2018-04-07T05:19:56.328Z,29.11
2018-04-07T05:21:05.517Z,29.11
2018-04-07T05:22:14.429Z,29.11
2018-04-07T05:23:23.345Z,28.92
2018-04-07T05:24:32.275Z,29.11
2018-04-07T05:25:41.670Z,28.91
2018-04-07T05:26:51.111Z,28.92
2018-04-07T05:28:00.260Z,28.92
2018-04-07T05:29:09.671Z,28.92
2018-04-07T05:30:18.820Z,28.92
2018-04-07T05:31:27.966Z,29.02
2018-04-07T05:32:37.428Z,29.02
2018-04-07T05:33:46.335Z,28.92
2018-04-07T05:34:55.741Z,28.91
2018-04-07T05:36:04.880Z,28.92
2018-04-07T05:37:14.059Z,29.02
2018-04-07T05:38:23.259Z,29.02
2018-04-07T05:39:32.915Z,28.92
2018-04-07T05:40:42.582Z,29.02
2018-04-07T05:41:51.735Z,28.92
2018-04-07T05:43:00.371Z,28.92
2018-04-07T05:44:09.528Z,29.02
2018-04-07T05:45:18.678Z,28.91
2018-04-07T05:46:27.838Z,28.92
2018-04-07T05:47:37.240Z,28.92
2018-04-07T05:48:46.159Z,29.02
2018-04-07T05:49:55.322Z,28.92
2018-04-07T05:51:04.757Z,29.02
2018-04-07T05:52:13.911Z,29.02
2018-04-07T05:53:23.314Z,28.92
2018-04-07T05:54:32.976Z,28.91
2018-04-07T05:55:42.470Z,29.02
2018-04-07T05:56:51.917Z,28.92
2018-04-07T05:58:01.312Z,28.92
2018-04-07T05:59:10.464Z,28.92
2018-04-07T06:00:19.133Z,28.92
2018-04-07T06:01:28.012Z,28.92
2018-04-07T06:02:37.183Z,28.92
2018-04-07T06:03:46.077Z,29.02
2018-04-07T06:04:54.995Z,29.02
2018-04-07T06:06:04.146Z,28.92
2018-04-07T06:07:13.550Z,29.02
2018-04-07T06:08:22.458Z,28.92
2018-04-07T06:09:31.611Z,29.02
2018-04-07T06:10:40.519Z,29.02
2018-04-07T06:11:49.207Z,29.02
2018-04-07T06:12:58.091Z,29.02
2018-04-07T06:14:06.990Z,29.02
2018-04-07T06:15:16.411Z,28.92
2018-04-07T06:16:25.298Z,28.72
2018-04-07T06:17:34.722Z,28.73
2018-04-07T06:18:44.122Z,28.91
2018-04-07T06:19:53.531Z,28.73
2018-04-07T06:21:02.668Z,28.91
2018-04-07T06:22:11.822Z,29.02
2018-04-07T06:23:20.448Z,28.72
2018-04-07T06:24:29.602Z,28.73
2018-04-07T06:25:38.229Z,28.72
2018-04-07T06:26:47.400Z,28.92
2018-04-07T06:27:56.552Z,28.73
2018-04-07T06:29:05.441Z,28.72
2018-04-07T06:30:14.838Z,28.73
2018-04-07T06:31:23.739Z,28.72
2018-04-07T06:32:32.890Z,28.81
2018-04-07T06:33:41.514Z,28.83
2018-04-07T06:34:50.437Z,28.73
2018-04-07T06:35:59.656Z,28.73
2018-04-07T06:37:08.820Z,28.92
2018-04-07T06:38:17.975Z,28.72
2018-04-07T06:39:27.115Z,28.83
2018-04-07T06:40:36.601Z,28.83
2018-04-07T06:41:45.811Z,28.83
2018-04-07T06:42:54.713Z,28.72
2018-04-07T06:44:03.598Z,28.83
2018-04-07T06:45:12.860Z,28.92
2018-04-07T06:46:21.485Z,28.92
2018-04-07T06:47:30.373Z,28.83
2018-04-07T06:48:39.829Z,28.83
2018-04-07T06:49:48.751Z,28.92
2018-04-07T06:50:57.722Z,28.63
2018-04-07T06:52:06.637Z,28.63
2018-04-07T06:53:15.790Z,28.81
2018-04-07T06:54:24.958Z,28.63
2018-04-07T06:55:34.102Z,28.53
2018-04-07T06:56:42.731Z,28.73
2018-04-07T06:57:51.384Z,28.52
2018-04-07T06:59:00.300Z,28.73
2018-04-07T07:00:09.215Z,28.63
2018-04-07T07:01:18.895Z,28.53
2018-04-07T07:02:27.811Z,28.53
2018-04-07T07:03:36.464Z,28.53
2018-04-07T07:04:45.103Z,28.53
2018-04-07T07:05:54.522Z,28.53
2018-04-07T07:07:03.159Z,28.53
2018-04-07T07:08:12.828Z,28.53
2018-04-07T07:09:21.981Z,28.73
2018-04-07T07:10:31.138Z,28.52
2018-04-07T07:11:40.046Z,28.73
2018-04-07T07:12:48.930Z,28.73
2018-04-07T07:13:58.347Z,28.63
2018-04-07T07:15:07.236Z,28.83
2018-04-07T07:16:16.118Z,28.73
2018-04-07T07:17:24.756Z,28.73
2018-04-07T07:18:33.663Z,28.73
2018-04-07T07:19:43.054Z,28.63
2018-04-07T07:20:52.451Z,28.73
2018-04-07T07:22:01.341Z,28.73
2018-04-07T07:23:10.256Z,28.83
2018-04-07T07:24:19.191Z,28.73
2018-04-07T07:25:28.410Z,28.73
2018-04-07T07:26:37.361Z,28.81
2018-04-07T07:27:46.522Z,28.73
2018-04-07T07:28:55.432Z,28.83
2018-04-07T07:30:05.200Z,28.83
2018-04-07T07:31:14.388Z,28.73
2018-04-07T07:32:23.034Z,28.73
2018-04-07T07:33:32.187Z,28.73
2018-04-07T07:34:41.355Z,28.73
2018-04-07T07:35:50.291Z,28.73
2018-04-07T07:36:59.193Z,28.83
2018-04-07T07:38:08.154Z,28.73
2018-04-07T07:39:16.797Z,28.73
2018-04-07T07:40:25.426Z,28.73
2018-04-07T07:41:34.578Z,28.53
2018-04-07T07:42:43.712Z,28.53
2018-04-07T07:43:52.383Z,28.53
2018-04-07T07:45:01.532Z,28.53
2018-04-07T07:46:10.678Z,28.53
2018-04-07T07:47:19.568Z,28.63
2018-04-07T07:48:29.270Z,28.53
2018-04-07T07:49:38.449Z,28.53
2018-04-07T07:50:47.916Z,28.53
2018-04-07T07:51:57.395Z,28.53
2018-04-07T07:53:06.796Z,28.63
2018-04-07T07:54:15.677Z,28.63
2018-04-07T07:55:24.568Z,28.73
2018-04-07T07:56:33.200Z,28.53
2018-04-07T07:57:41.834Z,28.73
2018-04-07T07:58:50.725Z,28.83
2018-04-07T08:00:00.030Z,28.83
2018-04-07T08:01:08.656Z,28.83
2018-04-07T08:02:17.554Z,28.83
2018-04-07T08:03:26.690Z,28.73
2018-04-07T08:04:35.883Z,28.73
2018-04-07T08:05:45.319Z,28.63
2018-04-07T08:06:54.474Z,28.73
2018-04-07T08:08:03.604Z,28.63
2018-04-07T08:09:13.273Z,28.63
2018-04-07T08:10:22.171Z,28.63
2018-04-07T08:11:31.060Z,28.53
2018-04-07T08:12:40.023Z,28.63
2018-04-07T08:13:49.174Z,28.73
2018-04-07T08:14:58.585Z,28.63
2018-04-07T08:16:07.464Z,28.83
2018-04-07T08:17:16.108Z,28.92
2018-04-07T08:18:25.298Z,28.83
2018-04-07T08:19:35.165Z,28.83
2018-04-07T08:20:44.703Z,28.83
2018-04-07T08:21:53.620Z,28.73
2018-04-07T08:23:02.608Z,28.73
2018-04-07T08:24:11.641Z,28.83
2018-04-07T08:25:20.524Z,28.83
2018-04-07T08:26:29.409Z,28.83
2018-04-07T08:27:38.294Z,28.73
2018-04-07T08:28:46.961Z,28.92
2018-04-07T08:29:56.107Z,28.73
2018-04-07T08:31:05.280Z,29.02
2018-04-07T08:32:14.802Z,28.92
2018-04-07T08:33:24.203Z,28.73
2018-04-07T08:34:33.118Z,28.73
2018-04-07T08:35:42.008Z,28.83
2018-04-07T08:36:51.151Z,29.02
2018-04-07T08:38:00.306Z,28.92
2018-04-07T08:39:09.189Z,28.92
2018-04-07T08:40:18.387Z,28.92
2018-04-07T08:41:27.300Z,28.83
2018-04-07T08:42:36.186Z,28.92
2018-04-07T08:43:45.323Z,28.92
2018-04-07T08:44:54.474Z,28.92
2018-04-07T08:46:03.636Z,28.92
2018-04-07T08:47:12.792Z,28.92
2018-04-07T08:48:21.829Z,28.92
2018-04-07T08:49:30.726Z,28.83
2018-04-07T08:50:40.234Z,29.02
2018-04-07T08:51:50.740Z,28.92
2018-04-07T08:52:59.958Z,29.02
2018-04-07T08:54:09.173Z,28.92
2018-04-07T08:55:18.339Z,28.92
2018-04-07T08:56:27.205Z,28.92
2018-04-07T08:57:36.575Z,29.02
2018-04-07T08:58:45.802Z,29.02
2018-04-07T08:59:55.026Z,29.02
2018-04-07T09:01:04.049Z,29.11
2018-04-07T09:02:12.945Z,29.02
2018-04-07T09:03:21.830Z,29.02
2018-04-07T09:04:30.710Z,29.02
2018-04-07T09:05:40.403Z,29.02
2018-04-07T09:06:49.350Z,29.02
2018-04-07T09:07:58.592Z,29.11
2018-04-07T09:09:07.742Z,29.11
2018-04-07T09:10:17.614Z,29.02
2018-04-07T09:11:26.870Z,29.02
2018-04-07T09:12:35.781Z,29.02
2018-04-07T09:13:44.677Z,29.02
2018-04-07T09:14:53.869Z,29.11
2018-04-07T09:16:02.505Z,29.11
2018-04-07T09:17:12.161Z,29.02
2018-04-07T09:18:21.575Z,29.02
2018-04-07T09:19:30.493Z,29.02
2018-04-07T09:20:39.358Z,29.11
2018-04-07T09:21:48.265Z,29.02
2018-04-07T09:22:57.694Z,29.03
2018-04-07T09:24:07.166Z,29.11
2018-04-07T09:25:16.846Z,29.02
2018-04-07T09:26:25.773Z,29.03
2018-04-07T09:27:34.937Z,29.02
2018-04-07T09:28:43.838Z,29.03
2018-04-07T09:29:52.770Z,29.03
2018-04-07T09:31:01.432Z,28.94
2018-04-07T09:32:10.598Z,29.03
2018-04-07T09:33:20.255Z,29.03
2018-04-07T09:34:29.418Z,29.03
2018-04-07T09:35:38.829Z,28.94
2018-04-07T09:36:47.771Z,28.94
2018-04-07T09:37:57.180Z,29.02
2018-04-07T09:39:06.860Z,28.94
2018-04-07T09:40:16.006Z,28.94
2018-04-07T09:41:24.638Z,28.84
2018-04-07T09:42:33.531Z,28.94
2018-04-07T09:43:42.444Z,28.92
2018-04-07T09:44:51.336Z,28.94
2018-04-07T09:45:59.989Z,29.31
2018-04-07T09:47:09.140Z,28.94
2018-04-07T09:48:18.306Z,28.83
2018-04-07T09:49:27.491Z,28.94
2018-04-07T09:50:36.417Z,28.92
2018-04-07T09:51:45.580Z,29.42
2018-04-07T09:52:55.019Z,29.31
2018-04-07T09:54:04.213Z,29.52
2018-04-07T09:55:13.111Z,28.74
2018-04-07T09:56:22.102Z,29.42
2018-04-07T09:57:31.050Z,29.42
2018-04-07T09:58:39.959Z,29.41
2018-04-07T09:59:48.861Z,29.21
2018-04-07T10:00:57.747Z,29.32
2018-04-07T10:02:07.168Z,29.32
2018-04-07T10:03:16.076Z,29.31
2018-04-07T10:04:25.021Z,29.22
2018-04-07T10:05:33.920Z,29.32
2018-04-07T10:06:43.079Z,29.32
2018-04-07T10:07:51.985Z,29.32
2018-04-07T10:09:01.153Z,29.21
2018-04-07T10:10:10.557Z,29.22
2018-04-07T10:11:19.971Z,29.21
2018-04-07T10:12:29.132Z,29.13
2018-04-07T10:13:38.615Z,29.22
2018-04-07T10:14:47.782Z,29.21
2018-04-07T10:15:56.444Z,29.21
2018-04-07T10:17:05.121Z,29.22
2018-04-07T10:18:14.511Z,29.21
2018-04-07T10:19:23.411Z,29.02
2018-04-07T10:20:32.573Z,29.21
2018-04-07T10:21:41.198Z,29.02
2018-04-07T10:22:50.876Z,29.13
2018-04-07T10:24:00.063Z,29.32
2018-04-07T10:25:09.239Z,29.11
2018-04-07T10:26:18.641Z,29.11
2018-04-07T10:27:27.796Z,29.21
2018-04-07T10:28:36.440Z,29.13
2018-04-07T10:29:45.359Z,29.13
2018-04-07T10:30:54.527Z,29.11
2018-04-07T10:32:03.741Z,29.22
2018-04-07T10:33:12.973Z,29.21
2018-04-07T10:34:22.163Z,29.13
2018-04-07T10:35:31.057Z,29.22
2018-04-07T10:36:39.959Z,29.21
2018-04-07T10:37:48.855Z,29.11
2018-04-07T10:38:57.737Z,29.32
2018-04-07T10:40:07.330Z,29.21
2018-04-07T10:41:16.478Z,29.41
2018-04-07T10:42:25.623Z,29.5
2018-04-07T10:43:34.545Z,29.31
2018-04-07T10:44:43.443Z,29.11
2018-04-07T10:45:53.118Z,29.52
2018-04-07T10:47:01.752Z,29.22
2018-04-07T10:48:11.126Z,29.42
2018-04-07T10:49:20.586Z,29.21
2018-04-07T10:50:29.235Z,29.42
2018-04-07T10:51:37.895Z,29.42
2018-04-07T10:52:46.858Z,29.32
2018-04-07T10:53:56.093Z,29.21
2018-04-07T10:55:05.011Z,29.42
2018-04-07T10:56:13.922Z,29.42
2018-04-07T10:57:22.558Z,29.13
2018-04-07T10:58:31.454Z,29.13
2018-04-07T10:59:40.594Z,29.22
2018-04-07T11:00:49.233Z,29.32
2018-04-07T11:01:57.868Z,29.42
2018-04-07T11:03:07.021Z,28.84
2018-04-07T11:04:16.184Z,28.94
2018-04-07T11:05:25.336Z,29.03
2018-04-07T11:06:34.235Z,29.03
2018-04-07T11:07:43.176Z,28.95
2018-04-07T11:08:52.326Z,29.05
2018-04-07T11:10:01.730Z,29.05
2018-04-07T11:11:10.933Z,29.14
2018-04-07T11:12:20.360Z,28.95
2018-04-07T11:13:29.526Z,29.05
2018-04-07T11:14:39.209Z,28.95
2018-04-07T11:15:48.105Z,29.05
2018-04-07T11:16:57.254Z,28.95
2018-04-07T11:18:06.428Z,28.95
2018-04-07T11:19:15.130Z,28.95
2018-04-07T11:20:24.285Z,29.05
2018-04-07T11:21:33.442Z,28.95
2018-04-07T11:22:42.643Z,29.05
2018-04-07T11:23:51.540Z,29.05
2018-04-07T11:25:00.697Z,28.95
2018-04-07T11:26:09.867Z,29.14
2018-04-07T11:27:18.756Z,28.95
2018-04-07T11:28:28.072Z,28.95
2018-04-07T11:29:37.223Z,28.85
2018-04-07T11:30:46.371Z,29.05
2018-04-07T11:31:55.762Z,29.05
2018-04-07T11:33:04.982Z,28.95
2018-04-07T11:34:14.446Z,29.14
2018-04-07T11:35:23.614Z,29.05
2018-04-07T11:36:32.772Z,29.14
2018-04-07T11:37:41.670Z,29.05
2018-04-07T11:38:50.822Z,29.05
2018-04-07T11:39:59.456Z,29.05
2018-04-07T11:41:08.091Z,29.14
2018-04-07T11:42:17.242Z,29.14
2018-04-07T11:43:25.873Z,29.05
2018-04-07T11:44:34.763Z,28.95
2018-04-07T11:45:44.197Z,28.85
2018-04-07T11:46:53.094Z,28.85
2018-04-07T11:48:02.016Z,29.53
2018-04-07T11:49:11.756Z,29.34
2018-04-07T11:50:20.652Z,29.43
2018-04-07T11:51:29.554Z,29.34
2018-04-07T11:52:38.465Z,29.14
2018-04-07T11:53:47.392Z,29.24
2018-04-07T11:54:56.284Z,29.24
2018-04-07T11:56:05.693Z,29.34
2018-04-07T11:57:14.878Z,29.24
2018-04-07T11:58:24.041Z,29.05
2018-04-07T11:59:32.945Z,29.24
2018-04-07T12:00:42.102Z,29.43
2018-04-07T12:01:51.824Z,29.34
2018-04-07T12:03:00.987Z,29.24
2018-04-07T12:04:09.623Z,29.43
2018-04-07T12:05:18.804Z,29.53
2018-04-07T12:06:28.237Z,29.43
2018-04-07T12:07:37.411Z,29.34
2018-04-07T12:08:46.346Z,29.43
2018-04-07T12:09:55.271Z,29.34
2018-04-07T12:11:03.915Z,29.34
2018-04-07T12:12:12.845Z,29.72
2018-04-07T12:13:21.990Z,29.53
2018-04-07T12:14:30.629Z,29.34
2018-04-07T12:15:39.544Z,29.43
2018-04-07T12:16:48.694Z,29.43
2018-04-07T12:17:58.122Z,29.34
2018-04-07T12:19:07.280Z,29.91
2018-04-07T12:20:15.908Z,29.72
2018-04-07T12:21:24.827Z,29.63
2018-04-07T12:22:33.456Z,29.72
2018-04-07T12:23:42.664Z,29.82
2018-04-07T12:24:51.550Z,29.91
2018-04-07T12:26:00.693Z,29.53
2018-04-07T12:27:09.594Z,30.21
2018-04-07T12:28:18.759Z,29.43
2018-04-07T12:29:28.414Z,29.53
2018-04-07T12:30:37.317Z,29.91
2018-04-07T12:31:46.488Z,30.01
2018-04-07T12:32:55.383Z,29.82
2018-04-07T12:34:04.275Z,29.91
2018-04-07T12:35:13.417Z,29.91
2018-04-07T12:36:22.313Z,29.72
2018-04-07T12:37:31.473Z,29.91
2018-04-07T12:38:40.649Z,29.91
2018-04-07T12:39:50.077Z,29.82
2018-04-07T12:40:59.506Z,30.01
2018-04-07T12:42:08.678Z,29.82
2018-04-07T12:43:17.849Z,29.91
2018-04-07T12:44:27.008Z,29.91
2018-04-07T12:45:36.200Z,30.01
2018-04-07T12:46:45.369Z,29.91
2018-04-07T12:47:54.533Z,29.91
2018-04-07T12:49:03.446Z,29.82
2018-04-07T12:50:12.091Z,30.3
2018-04-07T12:51:21.252Z,29.82
2018-04-07T12:52:30.405Z,30.21
2018-04-07T12:53:39.037Z,30.4
2018-04-07T12:54:47.705Z,30.21
2018-04-07T12:55:56.663Z,30.01
2018-04-07T12:57:05.830Z,30.3
2018-04-07T12:58:14.732Z,30.3
2018-04-07T12:59:23.641Z,30.21
2018-04-07T13:00:33.027Z,30.21
2018-04-07T13:01:41.680Z,30.21
2018-04-07T13:02:50.859Z,30.3
2018-04-07T13:04:00.280Z,30.11
2018-04-07T13:05:09.690Z,30.21
2018-04-07T13:06:18.597Z,30.11
2018-04-07T13:07:27.754Z,30.11
2018-04-07T13:08:36.654Z,30.01
2018-04-07T13:09:45.310Z,30.21
2018-04-07T13:10:54.475Z,30.11
2018-04-07T13:12:03.371Z,30.01
2018-04-07T13:13:12.551Z,30.01
2018-04-07T13:14:21.975Z,30.3
2018-04-07T13:15:30.745Z,30.11
2018-04-07T13:16:40.167Z,30.3
2018-04-07T13:17:49.310Z,30.4
2018-04-07T13:18:58.224Z,30.3
2018-04-07T13:20:07.431Z,30.11
2018-04-07T13:21:16.836Z,30.4
2018-04-07T13:22:26.051Z,30.11
2018-04-07T13:23:35.712Z,30.4
2018-04-07T13:24:45.130Z,30.11
2018-04-07T13:25:53.775Z,30.11
2018-04-07T13:27:02.946Z,30.11
2018-04-07T13:28:11.863Z,30.01
2018-04-07T13:29:21.028Z,30.11
2018-04-07T13:30:29.939Z,30.21
2018-04-07T13:31:38.835Z,30.11
2018-04-07T13:32:47.776Z,30.21
2018-04-07T13:33:56.928Z,30.21
2018-04-07T13:35:06.611Z,30.4
2018-04-07T13:36:15.274Z,30.21
2018-04-07T13:37:24.674Z,30.4
2018-04-07T13:38:33.570Z,30.21
2018-04-07T13:39:42.221Z,30.3
2018-04-07T13:40:51.367Z,30.3
2018-04-07T13:42:00.308Z,30.3
2018-04-07T13:43:09.723Z,30.21
2018-04-07T13:44:19.672Z,30.3
2018-04-07T13:45:28.812Z,30.21
2018-04-07T13:46:37.939Z,30.21
2018-04-07T13:47:46.578Z,30.11
2018-04-07T13:48:55.469Z,30.3
2018-04-07T13:50:04.353Z,30.21
2018-04-07T13:51:13.249Z,30.11
2018-04-07T13:52:22.141Z,30.4
2018-04-07T13:53:30.771Z,30.11
2018-04-07T13:54:39.935Z,30.11
2018-04-07T13:55:48.840Z,30.21
2018-04-07T13:56:57.986Z,30.21
2018-04-07T13:58:06.616Z,30.21
2018-04-07T13:59:15.246Z,30.11
2018-04-07T14:00:24.413Z,29.82
2018-04-07T14:01:33.822Z,29.82
2018-04-07T14:02:42.956Z,29.91
2018-04-07T14:03:52.625Z,29.91
2018-04-07T14:05:02.032Z,29.91
2018-04-07T14:06:11.449Z,30.01
2018-04-07T14:07:20.838Z,30.01
2018-04-07T14:08:29.980Z,29.91
2018-04-07T14:09:39.386Z,29.91
2018-04-07T14:10:49.063Z,30.01
2018-04-07T14:11:57.970Z,29.91
2018-04-07T14:13:06.853Z,29.91
2018-04-07T14:14:15.783Z,29.91
2018-04-07T14:15:24.945Z,29.82
2018-04-07T14:16:33.577Z,29.82
2018-04-07T14:17:42.479Z,29.91
2018-04-07T14:18:51.629Z,29.72
2018-04-07T14:20:00.547Z,29.82
2018-04-07T14:21:09.701Z,29.82
2018-04-07T14:22:18.330Z,29.93
2018-04-07T14:23:27.225Z,29.91
2018-04-07T14:24:36.112Z,29.91
2018-04-07T14:25:45.792Z,29.93
2018-04-07T14:26:55.190Z,29.93
2018-04-07T14:28:04.088Z,29.72
2018-04-07T14:29:12.997Z,29.93
2018-04-07T14:30:22.139Z,30.03
2018-04-07T14:31:31.044Z,30.03
2018-04-07T14:32:39.952Z,29.83
2018-04-07T14:33:48.852Z,29.91
2018-04-07T14:34:58.000Z,29.93
2018-04-07T14:36:07.146Z,29.83
2018-04-07T14:37:16.314Z,29.82
2018-04-07T14:38:25.761Z,30.01
2018-04-07T14:39:34.663Z,29.74
2018-04-07T14:40:43.295Z,29.93
2018-04-07T14:41:52.179Z,29.74
2018-04-07T14:43:01.607Z,29.93
2018-04-07T14:44:10.817Z,29.93
2018-04-07T14:45:19.448Z,29.93
2018-04-07T14:46:28.423Z,29.93
2018-04-07T14:47:37.343Z,29.93
2018-04-07T14:48:46.231Z,29.93
2018-04-07T14:49:55.665Z,30.21
2018-04-07T14:51:04.559Z,30.3
2018-04-07T14:52:13.447Z,30.21
2018-04-07T14:53:22.358Z,30.22